Time,TemperatureF,DewpointF,PressureIn,WindDirection,WindDirectionDegrees,WindSpeedMPH,WindSpeedGustMPH,Humidity,HourlyPrecipIn,Conditions,Clouds,dailyrainin,SoftwareType,DateUTC
2013-06-19 00:02:00,60.7,57.0,29.93,ESE,113,0.0,7.0,86,0.00,,,0.00,weatherlink.com 1.10,2013-06-19 04:02:00,
2013-06-19 00:17:00,60.3,57.0,29.93,NNE,19,6.0,8.0,87,0.01,,,0.01,weatherlink.com 1.10,2013-06-19 04:17:00,
2013-06-19 00:32:00,59.7,57.0,29.92,NNE,30,2.0,9.0,90,0.01,,,0.01,weatherlink.com 1.10,2013-06-19 04:32:00,
2013-06-19 00:47:00,59.4,57.0,29.92,NNE,17,5.0,9.0,91,0.01,,,0.01,weatherlink.com 1.10,2013-06-19 04:47:00,
2013-06-19 01:02:00,59.2,57.0,29.92,NE,44,0.0,10.0,92,0.01,,,0.01,weatherlink.com 1.10,2013-06-19 05:02:00,
2013-06-19 01:17:00,59.2,57.0,29.92,NNW,347,7.0,11.0,92,0.00,,,0.01,weatherlink.com 1.10,2013-06-19 05:17:00,
2013-06-19 01:32:00,59.2,57.0,29.93,NNE,21,1.0,10.0,92,0.00,,,0.01,weatherlink.com 1.10,2013-06-19 05:32:00,
2013-06-19 01:47:00,59.1,57.0,29.93,NE,44,5.0,12.0,91,0.00,,,0.01,weatherlink.com 1.10,2013-06-19 05:47:00,
2013-06-19 02:02:00,59.1,56.0,29.92,NNE,19,8.0,11.0,90,0.00,,,0.01,weatherlink.com 1.10,2013-06-19 06:02:00,
2013-06-19 02:18:00,59.1,56.0,29.92,NNE,19,9.0,12.0,88,0.00,,,0.01,weatherlink.com 1.10,2013-06-19 06:18:00,
2013-06-19 02:33:00,59.3,55.0,29.92,NE,39,5.0,9.0,84,0.00,,,0.01,weatherlink.com 1.10,2013-06-19 06:33:00,
2013-06-19 02:48:00,59.4,55.0,29.92,East,101,6.0,10.0,84,0.00,,,0.01,weatherlink.com 1.10,2013-06-19 06:48:00,
2013-06-19 03:03:00,59.6,53.0,29.92,NNE,32,4.0,11.0,80,0.00,,,0.01,weatherlink.com 1.10,2013-06-19 07:03:00,
2013-06-19 03:18:00,59.2,53.0,29.91,ENE,78,2.0,10.0,80,0.00,,,0.01,weatherlink.com 1.10,2013-06-19 07:18:00,
2013-06-19 03:33:00,59.0,54.0,29.91,NNE,21,1.0,9.0,83,0.00,,,0.01,weatherlink.com 1.10,2013-06-19 07:33:00,
2013-06-19 03:48:00,58.6,54.0,29.92,NE,47,0.0,11.0,85,0.00,,,0.01,weatherlink.com 1.10,2013-06-19 07:48:00,
2013-06-19 04:03:00,58.5,54.0,29.92,North,10,4.0,9.0,86,0.00,,,0.01,weatherlink.com 1.10,2013-06-19 08:03:00,
2013-06-19 04:18:00,58.6,54.0,29.92,NNE,12,2.0,9.0,85,0.00,,,0.01,weatherlink.com 1.10,2013-06-19 08:18:00,
2013-06-19 04:33:00,58.4,54.0,29.92,ENE,66,0.0,10.0,86,0.00,,,0.01,weatherlink.com 1.10,2013-06-19 08:33:00,
2013-06-19 04:48:00,58.5,54.0,29.92,North,10,1.0,8.0,86,0.00,,,0.01,weatherlink.com 1.10,2013-06-19 08:48:00,
2013-06-19 05:03:00,58.9,54.0,29.93,ENE,65,0.0,6.0,84,0.00,,,0.01,weatherlink.com 1.10,2013-06-19 09:03:00,
2013-06-19 05:18:00,59.0,54.0,29.93,NE,55,4.0,8.0,84,0.00,,,0.01,weatherlink.com 1.10,2013-06-19 09:18:00,
2013-06-19 05:33:00,59.0,55.0,29.93,NNE,26,7.0,7.0,85,0.00,,,0.01,weatherlink.com 1.10,2013-06-19 09:33:00,
2013-06-19 05:48:00,58.6,55.0,29.93,NNE,16,5.0,8.0,87,0.00,,,0.01,weatherlink.com 1.10,2013-06-19 09:48:00,
2013-06-19 06:03:00,58.7,55.0,29.93,NE,44,4.0,10.0,87,0.00,,,0.01,weatherlink.com 1.10,2013-06-19 10:03:00,
2013-06-19 06:18:00,59.4,55.0,29.93,NNE,33,8.0,10.0,86,0.00,,,0.01,weatherlink.com 1.10,2013-06-19 10:18:00,
2013-06-19 06:33:00,59.8,56.0,29.94,NNE,27,5.0,10.0,87,0.00,,,0.01,weatherlink.com 1.10,2013-06-19 10:33:00,
2013-06-19 06:48:00,60.4,56.0,29.94,NE,56,7.0,10.0,86,0.00,,,0.01,weatherlink.com 1.10,2013-06-19 10:48:00,
2013-06-19 07:03:00,61.1,57.0,29.95,North,355,6.0,12.0,86,0.00,,,0.01,weatherlink.com 1.10,2013-06-19 11:03:00,
2013-06-19 07:18:00,61.0,57.0,29.95,ENE,57,5.0,14.0,86,0.00,,,0.01,weatherlink.com 1.10,2013-06-19 11:18:00,
2013-06-19 07:33:00,61.6,57.0,29.95,North,351,0.0,16.0,84,0.00,,,0.01,weatherlink.com 1.10,2013-06-19 11:33:00,
2013-06-19 07:48:00,62.0,55.0,29.96,NNE,26,3.0,15.0,78,0.00,,,0.01,weatherlink.com 1.10,2013-06-19 11:48:00,
2013-06-19 08:03:00,62.3,55.0,29.97,East,87,8.0,14.0,78,0.00,,,0.01,weatherlink.com 1.10,2013-06-19 12:03:00,
2013-06-19 08:18:00,62.3,55.0,29.97,ENE,68,10.0,16.0,77,0.00,,,0.01,weatherlink.com 1.10,2013-06-19 12:18:00,
2013-06-19 08:33:00,62.9,55.0,29.98,ENE,78,8.0,15.0,76,0.00,,,0.01,weatherlink.com 1.10,2013-06-19 12:33:00,
2013-06-19 08:48:00,63.1,56.0,29.98,ENE,66,9.0,14.0,77,0.00,,,0.01,weatherlink.com 1.10,2013-06-19 12:48:00,
2013-06-19 09:03:00,63.8,55.0,29.99,ESE,114,11.0,17.0,74,0.00,,,0.01,weatherlink.com 1.10,2013-06-19 13:03:00,
2013-06-19 09:18:00,64.1,55.0,29.99,ENE,63,5.0,13.0,73,0.00,,,0.01,weatherlink.com 1.10,2013-06-19 13:18:00,
2013-06-19 09:33:00,65.3,52.0,29.99,NE,46,2.0,13.0,63,0.00,,,0.01,weatherlink.com 1.10,2013-06-19 13:33:00,
2013-06-19 09:48:00,65.9,52.0,29.99,NE,36,2.0,11.0,62,0.00,,,0.01,weatherlink.com 1.10,2013-06-19 13:48:00,
2013-06-19 10:03:00,66.7,52.0,30.00,ENE,61,9.0,12.0,59,0.00,,,0.01,weatherlink.com 1.10,2013-06-19 14:03:00,
2013-06-19 10:18:00,67.7,52.0,30.00,ENE,62,3.0,12.0,57,0.00,,,0.01,weatherlink.com 1.10,2013-06-19 14:18:00,
2013-06-19 10:33:00,68.2,50.0,30.01,East,81,2.0,15.0,52,0.00,,,0.01,weatherlink.com 1.10,2013-06-19 14:33:00,
2013-06-19 10:49:00,68.8,49.0,30.01,ENE,68,8.0,12.0,49,0.00,,,0.01,weatherlink.com 1.10,2013-06-19 14:49:00,
2013-06-19 11:04:00,69.0,48.0,30.01,ENE,74,8.0,13.0,47,0.00,,,0.01,weatherlink.com 1.10,2013-06-19 15:04:00,
2013-06-19 11:19:00,69.6,48.0,30.02,ESE,109,8.0,11.0,47,0.00,,,0.01,weatherlink.com 1.10,2013-06-19 15:19:00,
2013-06-19 11:34:00,71.1,47.0,30.02,SE,135,7.0,15.0,42,0.00,,,0.01,weatherlink.com 1.10,2013-06-19 15:34:00,
2013-06-19 11:49:00,71.4,47.0,30.01,East,84,6.0,11.0,42,0.00,,,0.01,weatherlink.com 1.10,2013-06-19 15:49:00,
2013-06-19 12:04:00,71.3,50.0,30.01,SE,142,7.0,14.0,47,0.00,,,0.01,weatherlink.com 1.10,2013-06-19 16:04:00,
2013-06-19 12:19:00,71.9,50.0,30.02,ESE,112,7.0,15.0,46,0.00,,,0.01,weatherlink.com 1.10,2013-06-19 16:19:00,
2013-06-19 12:34:00,71.3,49.0,30.01,ESE,115,9.0,16.0,46,0.00,,,0.01,weatherlink.com 1.10,2013-06-19 16:34:00,
2013-06-19 12:49:00,72.2,52.0,30.02,SSE,154,5.0,15.0,50,0.00,,,0.01,weatherlink.com 1.10,2013-06-19 16:49:00,
2013-06-19 13:04:00,72.9,52.0,30.02,SSE,147,1.0,12.0,48,0.00,,,0.01,weatherlink.com 1.10,2013-06-19 17:04:00,
2013-06-19 13:19:00,73.7,50.0,30.02,SE,137,12.0,13.0,44,0.00,,,0.01,weatherlink.com 1.10,2013-06-19 17:19:00,
2013-06-19 13:34:00,71.2,49.0,30.02,ESE,113,8.0,13.0,46,0.00,,,0.01,weatherlink.com 1.10,2013-06-19 17:34:00,
2013-06-19 13:49:00,71.0,51.0,30.02,SE,139,3.0,12.0,49,0.00,,,0.01,weatherlink.com 1.10,2013-06-19 17:49:00,
2013-06-19 14:04:00,70.2,53.0,30.03,SE,144,5.0,12.0,55,0.00,,,0.01,weatherlink.com 1.10,2013-06-19 18:04:00,
2013-06-19 14:19:00,70.3,52.0,30.03,SE,136,5.0,11.0,52,0.00,,,0.01,weatherlink.com 1.10,2013-06-19 18:19:00,
2013-06-19 14:34:00,71.0,52.0,30.03,ESE,121,2.0,11.0,51,0.00,,,0.01,weatherlink.com 1.10,2013-06-19 18:34:00,
2013-06-19 14:49:00,69.7,53.0,30.04,SSW,211,1.0,11.0,55,0.00,,,0.01,weatherlink.com 1.10,2013-06-19 18:49:00,
2013-06-19 15:04:00,70.8,51.0,30.04,SE,134,0.0,7.0,49,0.00,,,0.01,weatherlink.com 1.10,2013-06-19 19:04:00,
2013-06-19 15:19:00,71.5,50.0,30.04,South,186,2.0,8.0,47,0.00,,,0.01,weatherlink.com 1.10,2013-06-19 19:19:00,
2013-06-19 15:34:00,72.5,50.0,30.04,SSE,148,2.0,10.0,45,0.00,,,0.01,weatherlink.com 1.10,2013-06-19 19:34:00,
2013-06-19 15:49:00,72.8,50.0,30.04,SSW,200,3.0,7.0,44,0.00,,,0.01,weatherlink.com 1.10,2013-06-19 19:49:00,
2013-06-19 16:04:00,71.3,49.0,30.04,SSE,148,1.0,9.0,45,0.00,,,0.01,weatherlink.com 1.10,2013-06-19 20:04:00,
2013-06-19 16:19:00,72.1,49.0,30.05,SSE,152,5.0,8.0,44,0.00,,,0.01,weatherlink.com 1.10,2013-06-19 20:19:00,
2013-06-19 16:34:00,71.8,47.0,30.05,SW,230,3.0,11.0,41,0.00,,,0.01,weatherlink.com 1.10,2013-06-19 20:34:00,
2013-06-19 16:49:00,72.1,46.0,30.05,SSE,154,3.0,10.0,39,0.00,,,0.01,weatherlink.com 1.10,2013-06-19 20:49:00,
2013-06-19 17:04:00,72.9,44.0,30.05,South,176,0.0,7.0,36,0.00,,,0.01,weatherlink.com 1.10,2013-06-19 21:04:00,
2013-06-19 17:19:00,72.8,46.0,30.04,SE,137,3.0,9.0,38,0.00,,,0.01,weatherlink.com 1.10,2013-06-19 21:19:00,
2013-06-19 17:34:00,73.7,46.0,30.04,SSE,148,4.0,9.0,38,0.00,,,0.01,weatherlink.com 1.10,2013-06-19 21:34:00,
2013-06-19 17:49:00,73.3,47.0,30.04,SSE,150,5.0,8.0,39,0.00,,,0.01,weatherlink.com 1.10,2013-06-19 21:49:00,
2013-06-19 18:04:00,72.9,47.0,30.05,SE,145,3.0,7.0,40,0.00,,,0.01,weatherlink.com 1.10,2013-06-19 22:04:00,
2013-06-19 18:19:00,72.6,49.0,30.05,SE,132,1.0,7.0,43,0.00,,,0.01,weatherlink.com 1.10,2013-06-19 22:19:00,
2013-06-19 18:34:00,71.5,49.0,30.05,SE,141,2.0,8.0,45,0.00,,,0.01,weatherlink.com 1.10,2013-06-19 22:34:00,
2013-06-19 18:49:00,71.0,50.0,30.06,SSE,157,2.0,8.0,47,0.00,,,0.01,weatherlink.com 1.10,2013-06-19 22:49:00,
2013-06-19 19:04:00,71.1,49.0,30.06,SSE,157,1.0,7.0,45,0.00,,,0.01,weatherlink.com 1.10,2013-06-19 23:04:00,
2013-06-19 19:19:00,71.2,48.0,30.07,SSE,153,1.0,6.0,44,0.00,,,0.01,weatherlink.com 1.10,2013-06-19 23:19:00,
2013-06-19 19:34:00,70.8,48.0,30.07,SSW,198,2.0,4.0,45,0.00,,,0.01,weatherlink.com 1.10,2013-06-19 23:34:00,
2013-06-19 19:49:00,69.8,51.0,30.07,SSW,194,0.0,4.0,51,0.00,,,0.01,weatherlink.com 1.10,2013-06-19 23:49:00,
2013-06-19 20:04:00,69.2,51.0,30.08,SE,144,0.0,4.0,53,0.00,,,0.01,weatherlink.com 1.10,2013-06-20 00:04:00,
2013-06-19 20:19:00,69.0,49.0,30.08,SW,225,0.0,7.0,50,0.00,,,0.01,weatherlink.com 1.10,2013-06-20 00:19:00,
2013-06-19 20:34:00,69.1,50.0,30.09,SW,229,0.0,4.0,50,0.00,,,0.01,weatherlink.com 1.10,2013-06-20 00:34:00,
2013-06-19 20:49:00,68.9,50.0,30.09,SSW,207,0.0,4.0,51,0.00,,,0.01,weatherlink.com 1.10,2013-06-20 00:49:00,
2013-06-19 21:04:00,68.4,50.0,30.11,WSW,239,0.0,5.0,52,0.00,,,0.01,weatherlink.com 1.10,2013-06-20 01:04:00,
2013-06-19 21:35:00,67.2,49.0,30.12,SW,232,2.0,4.0,53,0.00,,,0.01,weatherlink.com 1.10,2013-06-20 01:35:00,
2013-06-19 21:50:00,66.8,49.0,30.13,SW,234,0.0,5.0,53,0.00,,,0.01,weatherlink.com 1.10,2013-06-20 01:50:00,
2013-06-19 22:05:00,66.2,49.0,30.13,SW,234,0.0,4.0,54,0.00,,,0.01,weatherlink.com 1.10,2013-06-20 02:05:00,
2013-06-19 22:20:00,65.9,50.0,30.14,SW,236,0.0,4.0,56,0.00,,,0.01,weatherlink.com 1.10,2013-06-20 02:20:00,
2013-06-19 22:35:00,65.5,51.0,30.14,SW,236,0.0,3.0,60,0.00,,,0.01,weatherlink.com 1.10,2013-06-20 02:35:00,
2013-06-19 22:50:00,65.2,52.0,30.14,West,263,0.0,8.0,63,0.00,,,0.01,weatherlink.com 1.10,2013-06-20 02:50:00,
2013-06-19 23:05:00,64.3,52.0,30.14,WNW,297,0.0,9.0,65,0.00,,,0.01,weatherlink.com 1.10,2013-06-20 03:05:00,
2013-06-19 23:20:00,63.9,52.0,30.15,WNW,286,4.0,6.0,66,0.00,,,0.01,weatherlink.com 1.10,2013-06-20 03:20:00,
2013-06-19 23:35:00,63.6,52.0,30.15,WNW,284,3.0,6.0,67,0.00,,,0.01,weatherlink.com 1.10,2013-06-20 03:35:00,
2013-06-19 23:50:00,63.4,52.0,30.15,WNW,286,0.0,7.0,67,0.00,,,0.01,weatherlink.com 1.10,2013-06-20 03:50:00,